Deptford, New Jersey
Current Conditions -  °F | °C
As of 5:54 PM on Wednesday 26 Nov 2014 (Local Time) from KPHL Reporting Station
Ice Pellets Ice Pellets  
Wind Chill: 26°   Ceiling: 1000
Heat Index: 36°   Visibility: 4mi
Dew Point: 32°   Wind: 17mph
Humidity: 86%   Direction: 330°NNW
Pressure: 29.87"   Gusts: NA
Location:  39.8266°N, 75.1276°W
Report Text: KPHL 262254Z 33015KT 4SM -RAPL BR BKN010 OVC016 02/00 A2987 RMK AO2 SNB04E45PLB45 SLP114 P0002 T00220000 $
Loading
Personal Weather Stations






























Interactive Weather Map New forecast layout! Learn more

10-Day Weather Forecast

Advertisements
Track Severe Weather on mobile